createdAt,value
2022-11-05T00:03:45.276Z,100.00
2022-11-05T00:11:19.009Z,100.00
2022-11-05T00:19:07.390Z,100.00
2022-11-05T00:26:41.125Z,100.00
2022-11-05T00:34:17.297Z,100.00
2022-11-05T00:42:11.261Z,100.00
2022-11-05T00:49:46.300Z,100.00
2022-11-05T00:57:19.967Z,100.00
2022-11-05T01:04:55.005Z,100.00
2022-11-05T01:12:28.927Z,100.00
2022-11-05T01:20:04.187Z,100.00
2022-11-05T01:27:37.993Z,100.00
2022-11-05T01:35:16.057Z,100.00
2022-11-05T01:42:50.451Z,100.00
2022-11-05T01:50:34.601Z,100.00
2022-11-05T01:58:12.829Z,100.00
2022-11-05T02:05:50.725Z,100.00
2022-11-05T02:13:24.364Z,100.00
2022-11-05T02:21:21.060Z,100.00
2022-11-05T02:29:18.496Z,100.00
2022-11-05T02:37:03.489Z,100.00
2022-11-05T02:44:45.934Z,100.00
2022-11-05T02:52:26.284Z,100.00
2022-11-05T03:00:04.100Z,100.00
2022-11-05T03:07:50.465Z,100.00
2022-11-05T03:15:40.464Z,100.00
2022-11-05T03:23:24.391Z,100.00
2022-11-05T03:30:59.347Z,100.00
2022-11-05T03:38:38.920Z,100.00
2022-11-05T03:46:18.754Z,100.00
2022-11-05T03:53:58.639Z,100.00
2022-11-05T04:01:32.816Z,100.00
2022-11-05T04:09:25.319Z,100.00
2022-11-05T04:17:09.536Z,100.00
2022-11-05T04:24:44.839Z,100.00
2022-11-05T04:32:18.513Z,100.00
2022-11-05T04:39:53.627Z,100.00
2022-11-05T04:47:27.288Z,100.00
2022-11-05T04:55:02.432Z,100.00
2022-11-05T05:02:37.538Z,100.00
2022-11-05T05:10:12.766Z,100.00
2022-11-05T05:17:51.396Z,100.00
2022-11-05T05:25:26.498Z,100.00
2022-11-05T05:33:02.978Z,100.00
2022-11-05T05:40:37.963Z,100.00
2022-11-05T05:48:11.575Z,100.00
2022-11-05T05:55:46.538Z,100.00
2022-11-05T06:03:20.682Z,100.00
2022-11-05T06:10:55.707Z,100.00
2022-11-05T06:18:29.608Z,100.00
2022-11-05T06:26:07.136Z,100.00
2022-11-05T06:33:41.410Z,100.00
2022-11-05T06:41:16.713Z,100.00
2022-11-05T06:48:51.021Z,100.00
2022-11-05T06:56:26.136Z,100.00
2022-11-05T07:03:59.852Z,100.00
2022-11-05T07:11:34.833Z,100.00
2022-11-05T07:19:08.502Z,100.00
2022-11-05T07:26:43.619Z,100.00
2022-11-05T07:34:17.639Z,100.00
2022-11-05T07:41:54.923Z,100.00
2022-11-05T07:49:28.607Z,100.00
2022-11-05T07:57:03.531Z,100.00
2022-11-05T08:04:37.189Z,100.00
2022-11-05T08:12:12.221Z,100.00
2022-11-05T08:19:45.834Z,100.00
2022-11-05T08:27:20.866Z,100.00
2022-11-05T08:34:54.505Z,100.00
2022-11-05T08:42:29.897Z,100.00
2022-11-05T08:50:03.843Z,100.00
2022-11-05T08:57:38.804Z,100.00
2022-11-05T09:05:12.370Z,100.00
2022-11-05T09:12:47.512Z,100.00
2022-11-05T09:20:21.554Z,100.00
2022-11-05T09:28:07.803Z,100.00
2022-11-05T09:35:44.005Z,100.00
2022-11-05T09:43:26.094Z,100.00
2022-11-05T09:51:05.710Z,100.00
2022-11-05T09:58:44.971Z,100.00
2022-11-05T10:06:22.659Z,100.00
2022-11-05T10:14:00.597Z,100.00
2022-11-05T10:22:04.325Z,100.00
2022-11-05T10:29:32.563Z,100.00
2022-11-05T10:37:07.744Z,100.00
2022-11-05T10:44:48.825Z,100.00
2022-11-05T10:52:25.808Z,100.00
2022-11-05T11:00:24.034Z,100.00
2022-11-05T11:08:01.607Z,100.00
2022-11-05T11:15:37.450Z,100.00
2022-11-05T11:23:13.976Z,100.00
2022-11-05T11:30:52.617Z,100.00
2022-11-05T11:38:30.191Z,100.00
2022-11-05T11:46:09.927Z,96.12
2022-11-05T11:53:49.263Z,93.86
2022-11-05T12:01:55.742Z,91.47
2022-11-05T12:09:38.406Z,90.02
2022-11-05T12:17:33.260Z,92.32
2022-11-05T12:25:27.788Z,91.93
2022-11-05T12:33:17.320Z,92.41
2022-11-05T12:41:06.980Z,91.98
2022-11-05T12:48:53.811Z,88.77
2022-11-05T12:56:35.321Z,87.53
2022-11-05T13:04:16.346Z,88.78
2022-11-05T13:11:55.502Z,89.29
2022-11-05T13:19:33.071Z,90.29
2022-11-05T13:27:31.821Z,90.37
2022-11-05T13:35:09.086Z,90.81
2022-11-05T13:43:11.833Z,89.71
2022-11-05T13:51:03.741Z,88.79
2022-11-05T13:58:58.725Z,88.23
2022-11-05T14:06:36.062Z,89.13
2022-11-05T14:14:19.115Z,91.32
2022-11-05T14:21:54.455Z,92.67
2022-11-05T14:29:39.595Z,95.12
2022-11-05T14:37:37.197Z,96.35
2022-11-05T14:45:27.197Z,98.96
2022-11-05T14:53:10.831Z,100.00
2022-11-05T15:00:49.155Z,100.00
2022-11-05T15:08:32.807Z,100.00
2022-11-05T15:16:08.901Z,100.00
2022-11-05T15:23:45.549Z,100.00
2022-11-05T15:31:31.913Z,100.00
2022-11-05T15:39:29.359Z,100.00
2022-11-05T15:47:16.007Z,100.00
2022-11-05T15:55:08.895Z,100.00
2022-11-05T16:02:44.595Z,100.00
2022-11-05T16:10:20.464Z,100.00
2022-11-05T16:17:58.809Z,100.00
2022-11-05T16:25:40.213Z,100.00
2022-11-05T16:33:15.347Z,100.00
2022-11-05T16:40:49.127Z,100.00
2022-11-05T16:48:24.255Z,100.00
2022-11-05T16:55:58.060Z,100.00
2022-11-05T17:03:33.176Z,100.00
2022-11-05T17:11:07.611Z,100.00
2022-11-05T17:18:43.691Z,100.00
2022-11-05T17:26:17.559Z,100.00
2022-11-05T17:33:56.697Z,100.00
2022-11-05T17:41:30.792Z,100.00
2022-11-05T17:49:06.598Z,100.00
2022-11-05T17:56:44.855Z,100.00
2022-11-05T18:04:20.056Z,100.00
2022-11-05T18:11:53.905Z,100.00
2022-11-05T18:19:29.383Z,100.00
2022-11-05T18:27:03.106Z,100.00
2022-11-05T18:34:38.263Z,100.00
2022-11-05T18:42:12.026Z,100.00
2022-11-05T18:49:48.314Z,100.00
2022-11-05T18:57:21.968Z,100.00
2022-11-05T19:12:50.882Z,100.00
2022-11-05T19:20:26.079Z,100.00
2022-11-05T19:27:59.679Z,100.00
2022-11-05T19:35:40.920Z,100.00
2022-11-05T19:43:15.183Z,100.00
2022-11-05T19:50:51.387Z,100.00
2022-11-05T19:58:25.089Z,100.00
2022-11-05T20:06:04.509Z,100.00
2022-11-05T20:13:38.253Z,100.00
2022-11-05T20:21:13.291Z,100.00
2022-11-05T20:28:47.157Z,100.00
2022-11-05T20:36:24.057Z,100.00
2022-11-05T20:43:57.699Z,100.00
2022-11-05T20:51:32.718Z,100.00
2022-11-05T20:59:06.808Z,100.00
2022-11-05T21:06:41.927Z,100.00
2022-11-05T21:14:15.824Z,100.00
2022-11-05T21:21:50.925Z,100.00
2022-11-05T21:29:24.835Z,100.00
2022-11-05T21:36:59.976Z,100.00
2022-11-05T21:44:33.805Z,100.00
2022-11-05T21:52:29.873Z,100.00
2022-11-05T22:00:06.998Z,100.00
2022-11-05T22:07:42.448Z,100.00
2022-11-05T22:15:16.266Z,100.00
2022-11-05T22:22:51.272Z,100.00
2022-11-05T22:30:25.018Z,100.00
2022-11-05T22:38:00.042Z,100.00
2022-11-05T22:45:36.489Z,100.00
2022-11-05T22:53:12.758Z,100.00
2022-11-05T23:00:46.501Z,100.00
2022-11-05T23:08:38.929Z,100.00
2022-11-05T23:16:30.633Z,100.00
2022-11-05T23:24:06.426Z,100.00
2022-11-05T23:31:57.477Z,100.00
2022-11-05T23:39:33.451Z,100.00
2022-11-05T23:47:29.493Z,100.00
2022-11-05T23:55:06.179Z,100.00
